Time;durP1;ratioP1;P1;durP2;ratioP2;P2;SDS_P1;SDS_P2;PMS_P1;PMS_P2;Temp;Humidity;BMP_temperature;BMP_pressure;BME280_temperature;BME280_humidity;BME280_pressure;Samples;Min_cycle;Max_cycle;Signal;HPM_P1;HPM_P2
2022/01/09 00:00:31;;;;;;;;;2.33;2.33;;;;;7.76;100.00;99305.69;6225275;22;45284;-86
2022/01/09 00:02:58;;;;;;;;;3.00;0.00;;;;;7.47;100.00;99260.59;6225005;22;45521;-85
2022/01/09 00:05:24;;;;;;;;;1.00;1.00;;;;;7.58;99.20;99293.28;6223125;22;47123;-85
2022/01/09 00:07:50;;;;;;;;;3.00;3.00;;;;;7.56;96.83;99306.50;6223602;22;45699;-85
2022/01/09 00:10:17;;;;;;;;;4.00;2.00;;;;;7.61;97.45;99306.50;6225125;22;45684;-86
2022/01/09 00:12:42;;;;;;;;;3.67;2.67;;;;;7.67;96.57;99325.03;6224224;22;45383;-85
2022/01/09 00:15:09;;;;;;;;;3.00;2.00;;;;;7.42;94.49;99292.34;6224362;22;47118;-86
2022/01/09 00:17:34;;;;;;;;;6.00;2.00;;;;;7.59;95.08;99326.78;6225611;22;45600;-86
2022/01/09 00:20:01;;;;;;;;;1.00;1.00;;;;;7.70;95.74;99350.66;6223673;22;45495;-86
2022/01/09 00:22:36;;;;;;;;;4.33;2.00;;;;;7.61;97.78;99351.47;6223037;22;45438;-86
2022/01/09 00:25:02;;;;;;;;;2.33;1.00;;;;;7.68;96.59;99360.34;6221554;22;46771;-86
2022/01/09 00:27:28;;;;;;;;;1.67;1.67;;;;;7.64;96.81;99359.44;6223902;22;45478;-86
2022/01/09 00:29:53;;;;;;;;;1.33;1.33;;;;;7.65;97.15;99381.50;6222920;22;45423;-86
2022/01/09 00:32:20;;;;;;;;;7.67;3.00;;;;;7.67;97.29;99382.38;6221445;22;45366;-85
2022/01/09 00:34:45;;;;;;;;;6.00;2.00;;;;;7.61;96.88;99385.88;6222775;22;45652;-86
2022/01/09 00:37:11;;;;;;;;;1.33;0.33;;;;;7.46;97.55;99384.06;6246707;22;45391;-86
2022/01/09 00:39:36;;;;;;;;;2.00;2.00;;;;;7.50;96.80;99384.97;6222085;22;45255;-86
2022/01/09 00:42:02;;;;;;;;;4.33;2.00;;;;;7.55;96.78;99404.38;6220941;22;45610;-86
2022/01/09 00:44:27;;;;;;;;;6.67;2.00;;;;;7.46;93.31;99391.13;6220907;22;46854;-86
2022/01/09 00:46:56;;;;;;;;;1.00;1.00;;;;;7.48;95.54;99411.41;6219746;22;45339;-86
2022/01/09 00:49:22;;;;;;;;;1.67;1.67;;;;;7.43;93.03;99407.84;6224547;22;45402;-86
2022/01/09 00:51:47;;;;;;;;;2.00;0.00;;;;;7.38;92.61;99391.06;6196793;22;45493;-86
2022/01/09 00:54:13;;;;;;;;;3.00;1.67;;;;;7.48;92.83;99418.47;6223721;22;45397;-86
2022/01/09 00:56:38;;;;;;;;;2.33;1.00;;;;;7.36;90.77;99417.50;6225609;22;45272;-86
2022/01/09 00:59:04;;;;;;;;;3.67;1.33;;;;;7.49;92.19;99438.72;6201920;22;45382;-86
2022/01/09 01:01:31;;;;;;;;;2.00;1.67;;;;;7.40;92.19;99437.81;6201452;22;45405;-86
2022/01/09 01:03:56;;;;;;;;;7.00;3.00;;;;;7.39;92.32;99440.44;6201272;22;46601;-86
2022/01/09 01:06:21;;;;;;;;;2.00;2.00;;;;;7.51;92.70;99461.66;6199693;22;45283;-86
2022/01/09 01:08:47;;;;;;;;;3.00;3.00;;;;;7.43;91.84;99473.97;6199252;22;45445;-86
2022/01/09 01:11:12;;;;;;;;;1.67;1.00;;;;;7.52;94.61;99487.25;6225132;22;45396;-86
2022/01/09 01:13:38;;;;;;;;;1.33;1.00;;;;;7.50;94.45;99496.06;6197185;22;46966;-86
2022/01/09 01:16:04;;;;;;;;;2.00;0.67;;;;;7.53;95.98;99506.66;6196642;22;45262;-86
2022/01/09 01:18:29;;;;;;;;;1.00;0.00;;;;;7.49;96.34;99496.94;6196156;22;45341;-86
2022/01/09 01:20:55;;;;;;;;;1.00;1.00;;;;;7.51;95.70;99508.41;6224207;22;45398;-86
2022/01/09 01:23:20;;;;;;;;;0.67;0.67;;;;;7.49;96.00;99520.75;6223582;22;45877;-86
2022/01/09 01:25:51;;;;;;;;;1.00;1.00;;;;;7.50;96.01;99533.09;6196720;22;45339;-86
2022/01/09 01:28:16;;;;;;;;;1.67;1.67;;;;;7.33;96.71;99495.94;6197502;22;45302;-85
2022/01/09 01:30:42;;;;;;;;;2.00;0.00;;;;;7.48;96.90;99526.94;6196540;22;45392;-85
2022/01/09 01:33:08;;;;;;;;;1.00;1.00;;;;;7.54;94.45;99537.53;6196957;22;46951;-85
2022/01/09 01:35:33;;;;;;;;;1.00;1.00;;;;;7.59;96.63;99543.72;6196258;22;46084;-86
2022/01/09 01:37:58;;;;;;;;;2.00;2.00;;;;;7.59;96.46;99562.25;6223237;22;45322;-86
2022/01/09 01:40:24;;;;;;;;;3.00;2.00;;;;;7.57;96.55;99562.28;6195716;22;45295;-87
2022/01/09 01:42:49;;;;;;;;;2.00;1.00;;;;;7.49;97.22;99547.19;6193967;22;46852;-87
2022/01/09 01:45:21;;;;;;;;;0.67;0.33;;;;;7.65;95.77;99572.88;6195986;22;45373;-87
2022/01/09 01:48:12;;;;;;;;;1.00;1.00;;;;;7.67;95.33;99567.59;6217477;22;45429;-87
2022/01/09 01:50:39;;;;;;;;;2.00;1.00;;;;;7.53;95.91;99576.31;6165044;23;45724;-86
2022/01/09 01:53:08;;;;;;;;;1.33;1.33;;;;;7.58;96.84;99585.19;6164871;23;48404;-87
2022/01/09 01:55:37;;;;;;;;;1.00;1.00;;;;;7.59;97.07;99588.72;6165221;23;45261;-87
2022/01/09 01:58:05;;;;;;;;;1.33;1.00;;;;;7.58;94.68;99606.38;6192006;23;45593;-87
2022/01/09 02:00:31;;;;;;;;;2.00;0.33;;;;;7.52;97.02;99594.84;6164291;23;45853;-86
2022/01/09 02:02:56;;;;;;;;;2.00;1.00;;;;;7.54;95.78;99611.63;6163682;23;47179;-87
2022/01/09 02:05:22;;;;;;;;;3.00;1.67;;;;;7.49;96.61;99608.03;6191817;23;45414;-86
2022/01/09 02:07:50;;;;;;;;;1.00;1.00;;;;;7.55;98.24;99616.03;6191282;23;45328;-86
2022/01/09 02:10:16;;;;;;;;;2.00;0.67;;;;;7.44;100.00;99615.94;6188898;23;45408;-87
2022/01/09 02:12:43;;;;;;;;;1.33;1.33;;;;;7.34;100.00;99619.38;6191390;23;44896;-87
2022/01/09 02:15:26;;;;;;;;;1.00;0.00;;;;;7.29;100.00;99623.72;6164240;23;45707;-86
2022/01/09 02:17:52;;;;;;;;;0.00;0.00;;;;;7.18;100.00;99623.63;6194045;23;45264;-87
2022/01/09 02:20:17;;;;;;;;;1.33;1.00;;;;;7.07;97.47;99618.25;6192264;23;45502;-87
2022/01/09 02:22:42;;;;;;;;;4.33;1.00;;;;;7.11;98.19;99624.44;6166793;23;47101;-86
2022/01/09 02:25:10;;;;;;;;;0.00;0.00;;;;;7.17;97.57;99635.06;6166262;23;45408;-86
2022/01/09 02:27:35;;;;;;;;;0.67;0.00;;;;;7.14;96.80;99635.06;6166334;23;45504;-86
2022/01/09 02:30:01;;;;;;;;;0.00;0.00;;;;;7.19;96.50;99620.09;6194008;23;45498;-87
2022/01/09 02:32:26;;;;;;;;;0.00;0.00;;;;;7.20;94.45;99624.53;6166062;23;46868;-86
2022/01/09 02:34:52;;;;;;;;;0.33;0.33;;;;;7.17;95.62;99625.41;6166704;23;45264;-86
2022/01/09 02:37:17;;;;;;;;;0.00;0.00;;;;;7.20;94.80;99625.41;6167556;23;45351;-86
2022/01/09 02:39:43;;;;;;;;;1.00;1.00;;;;;7.28;97.59;99654.59;6194962;23;45276;-86
2022/01/09 02:42:31;;;;;;;;;0.00;0.00;;;;;7.29;98.16;99652.81;6166280;23;46841;-86
2022/01/09 02:44:57;;;;;;;;;0.00;0.00;;;;;7.20;97.95;99669.50;6169161;22;45455;-86
2022/01/09 02:47:25;;;;;;;;;2.00;0.67;;;;;7.12;99.31;99650.03;6170835;22;45237;-86
2022/01/09 02:49:53;;;;;;;;;0.33;0.33;;;;;7.14;98.29;99649.16;6205323;22;45435;-87
2022/01/09 02:52:30;;;;;;;;;1.33;1.33;;;;;7.10;97.25;99662.34;6223467;22;46792;-86
2022/01/09 02:57:32;;;;;;;;;1.00;1.00;;;;;7.05;99.04;99667.59;6227514;22;45438;-87
2022/01/09 02:59:57;;;;;;;;;0.00;0.00;;;;;7.07;98.77;99670.22;6226166;22;45356;-86
2022/01/09 03:02:23;;;;;;;;;1.00;1.00;;;;;7.11;98.85;99678.22;6224768;22;46972;-86
2022/01/09 03:04:48;;;;;;;;;1.00;0.00;;;;;7.07;98.31;99672.88;6223690;22;45426;-86
2022/01/09 03:07:13;;;;;;;;;1.00;0.00;;;;;7.16;98.53;99678.28;6226358;22;45380;-86
2022/01/09 03:09:39;;;;;;;;;1.00;1.00;;;;;7.15;98.24;99665.91;6224028;22;45513;-86
2022/01/09 03:12:05;;;;;;;;;2.00;0.00;;;;;7.13;98.59;99663.25;6223628;22;47595;-87
2022/01/09 03:14:30;;;;;;;;;0.00;0.00;;;;;7.24;98.89;99676.59;6225685;22;44681;-87
2022/01/09 03:16:56;;;;;;;;;1.00;0.00;;;;;7.22;98.53;99681.84;6225424;22;45313;-87
2022/01/09 03:19:22;;;;;;;;;1.67;1.67;;;;;7.19;98.33;99675.63;6224993;22;44768;-87
2022/01/09 03:21:48;;;;;;;;;1.00;1.00;;;;;7.27;98.51;99686.31;6224698;22;48063;-86
2022/01/09 03:24:13;;;;;;;;;1.33;1.33;;;;;7.36;98.37;99703.16;6226989;22;45326;-87
2022/01/09 03:26:39;;;;;;;;;0.00;0.00;;;;;7.31;97.98;99670.50;6227320;22;45738;-86
2022/01/09 03:29:04;;;;;;;;;1.00;1.00;;;;;7.45;97.80;99690.91;6224867;22;45433;-86
2022/01/09 03:31:30;;;;;;;;;1.00;1.00;;;;;7.52;96.43;99719.19;6223670;22;47094;-87
2022/01/09 03:33:55;;;;;;;;;0.67;0.00;;;;;7.31;97.65;99696.03;6223018;22;46000;-87
2022/01/09 03:36:20;;;;;;;;;0.00;0.00;;;;;7.35;100.00;99725.22;6223854;22;45363;-87
2022/01/09 03:38:46;;;;;;;;;1.00;1.00;;;;;7.22;100.00;99736.50;6222400;22;45406;-87
2022/01/09 03:41:11;;;;;;;;;2.00;0.00;;;;;7.01;100.00;99745.97;6221908;22;48412;-86
2022/01/09 03:43:37;;;;;;;;;1.00;1.00;;;;;6.96;100.00;99733.56;6221452;22;45574;-86
2022/01/09 03:46:02;;;;;;;;;3.67;1.00;;;;;6.88;100.00;99744.03;6224081;22;45352;-86
2022/01/09 03:48:29;;;;;;;;;1.67;1.00;;;;;6.85;100.00;99748.38;6220900;22;45388;-86
2022/01/09 03:50:55;;;;;;;;;1.00;1.00;;;;;6.75;100.00;99727.13;6195741;22;46762;-86
2022/01/09 03:53:20;;;;;;;;;1.00;1.00;;;;;6.79;100.00;99755.38;6223600;22;45706;-87
2022/01/09 03:55:46;;;;;;;;;1.33;0.33;;;;;6.77;100.00;99749.19;6197560;22;45283;-87
2022/01/09 03:58:11;;;;;;;;;2.00;1.00;;;;;6.76;100.00;99743.88;6226686;22;45264;-86
2022/01/09 04:00:37;;;;;;;;;0.00;0.00;;;;;6.74;100.00;99746.47;6224531;22;45251;-86
2022/01/09 04:03:02;;;;;;;;;0.00;0.00;;;;;6.65;100.00;99740.22;6198311;22;45411;-86
2022/01/09 04:05:28;;;;;;;;;3.67;1.00;;;;;6.66;100.00;99727.00;6225845;22;45287;-86
2022/01/09 04:07:53;;;;;;;;;1.00;0.00;;;;;6.59;100.00;99723.38;6197387;22;44872;-87
2022/01/09 04:10:20;;;;;;;;;1.00;1.00;;;;;6.55;100.00;99716.28;6198585;22;47106;-86
2022/01/09 04:12:51;;;;;;;;;0.67;0.67;;;;;6.65;100.00;99724.34;6221953;22;45424;-87
2022/01/09 04:15:18;;;;;;;;;2.00;0.00;;;;;6.49;100.00;99700.34;6196630;22;45389;-86
2022/01/09 04:20:15;;;;;;;;;5.33;1.00;;;;;6.61;100.00;99734.88;6226598;22;45263;-87
2022/01/09 04:22:40;;;;;;;;;1.00;1.00;;;;;6.67;100.00;99739.34;6198513;22;45760;-86
2022/01/09 04:25:07;;;;;;;;;2.00;0.00;;;;;6.72;100.00;99750.84;6226696;22;45366;-86
2022/01/09 04:27:33;;;;;;;;;5.33;1.33;;;;;6.78;100.00;99747.41;6199516;22;45422;-87
2022/01/09 04:29:59;;;;;;;;;1.00;1.00;;;;;6.80;100.00;99745.69;6199410;22;47472;-86
2022/01/09 04:33:08;;;;;;;;;1.00;0.00;;;;;6.94;100.00;99738.81;6225221;22;45733;-85
2022/01/09 04:35:34;;;;;;;;;1.00;0.67;;;;;6.84;100.00;99742.22;6225397;22;45640;-86
2022/01/09 04:37:59;;;;;;;;;2.00;0.00;;;;;6.80;100.00;99751.84;6198453;22;44899;-87
2022/01/09 04:40:25;;;;;;;;;0.67;0.67;;;;;6.76;100.00;99760.59;6198403;22;47593;-86
2022/01/09 04:42:54;;;;;;;;;0.33;0.33;;;;;6.76;100.00;99755.31;6223513;22;45687;-86
2022/01/09 04:45:23;;;;;;;;;0.00;0.00;;;;;6.72;100.00;99760.53;6197580;22;44943;-86
2022/01/09 04:47:51;;;;;;;;;0.00;0.00;;;;;6.67;100.00;99770.19;6225452;22;45401;-86
2022/01/09 04:50:24;;;;;;;;;0.00;0.00;;;;;6.64;100.00;99764.84;6212580;22;47992;-86
2022/01/09 04:52:59;;;;;;;;;1.00;1.00;;;;;6.49;100.00;99723.25;6223664;22;45347;-86
2022/01/09 04:55:25;;;;;;;;;1.00;1.00;;;;;6.72;100.00;99765.84;6221999;22;45464;-87
2022/01/09 04:58:35;;;;;;;;;1.67;1.00;;;;;6.89;100.00;99760.75;6221849;22;45291;-86
2022/01/09 05:01:00;;;;;;;;;2.00;1.00;;;;;6.79;100.00;99744.78;6219049;22;48165;-86
2022/01/09 05:03:25;;;;;;;;;1.00;1.00;;;;;6.85;100.00;99751.00;6219139;22;45847;-86
2022/01/09 05:05:51;;;;;;;;;0.00;0.00;;;;;6.88;100.00;99753.72;6220321;22;45806;-86
2022/01/09 05:08:16;;;;;;;;;0.00;0.00;;;;;6.82;100.00;99749.22;6220728;22;45344;-86
2022/01/09 05:10:43;;;;;;;;;0.00;0.00;;;;;6.84;100.00;99762.47;6222450;22;48111;-86
2022/01/09 05:13:08;;;;;;;;;1.67;1.67;;;;;6.76;100.00;99755.31;6221131;22;44807;-86
2022/01/09 05:15:34;;;;;;;;;1.00;1.00;;;;;6.80;100.00;99758.88;6223445;22;45313;-87
2022/01/09 05:18:03;;;;;;;;;0.33;0.33;;;;;6.81;100.00;99752.75;6220561;22;45505;-86
2022/01/09 05:20:28;;;;;;;;;1.00;1.00;;;;;6.80;100.00;99751.84;6221301;22;47214;-87
2022/01/09 05:22:55;;;;;;;;;0.00;0.00;;;;;6.85;100.00;99741.34;6223338;22;45258;-87
2022/01/09 05:25:20;;;;;;;;;0.00;0.00;;;;;6.82;100.00;99734.25;6223519;22;45667;-87
2022/01/09 05:27:46;;;;;;;;;0.00;0.00;;;;;6.89;100.00;99734.31;6222449;22;45569;-87
2022/01/09 05:30:11;;;;;;;;;3.00;3.00;;;;;6.86;100.00;99729.91;6224138;22;48011;-87
2022/01/09 05:32:36;;;;;;;;;1.67;1.00;;;;;6.81;100.00;99723.69;6225513;22;45332;-87
2022/01/09 05:35:03;;;;;;;;;1.33;1.00;;;;;6.78;100.00;99710.41;6227986;22;45602;-86
2022/01/09 05:37:29;;;;;;;;;2.00;2.00;;;;;6.81;100.00;99726.31;6225300;22;45454;-86
2022/01/09 05:39:54;;;;;;;;;0.33;0.33;;;;;6.76;100.00;99717.44;6224866;22;46854;-86
2022/01/09 05:42:19;;;;;;;;;1.00;1.00;;;;;6.78;100.00;99724.50;6226692;22;45710;-86
2022/01/09 05:44:47;;;;;;;;;4.33;0.33;;;;;6.74;100.00;99724.47;6225055;22;45289;-87
2022/01/09 05:47:12;;;;;;;;;2.00;0.00;;;;;6.74;100.00;99724.47;6222213;22;45301;-87
2022/01/09 05:49:37;;;;;;;;;2.00;2.00;;;;;6.72;100.00;99726.19;6219389;22;48085;-87
2022/01/09 05:52:03;;;;;;;;;3.00;1.67;;;;;6.77;100.00;99740.38;6222053;22;46164;-86
2022/01/09 05:54:29;;;;;;;;;0.00;0.00;;;;;6.70;100.00;99738.50;6222783;22;45310;-87
2022/01/09 05:56:54;;;;;;;;;3.67;2.00;;;;;6.57;100.00;99718.97;6223081;22;45409;-86
2022/01/09 05:59:21;;;;;;;;;2.00;2.00;;;;;6.72;100.00;99747.34;6222239;22;47967;-86
2022/01/09 06:01:47;;;;;;;;;1.00;1.00;;;;;6.77;100.00;99761.50;6223024;22;45808;-86
2022/01/09 06:04:12;;;;;;;;;0.00;0.00;;;;;6.75;100.00;99766.75;6224367;22;45357;-87
2022/01/09 06:06:38;;;;;;;;;1.67;1.00;;;;;6.74;100.00;99759.69;6223798;22;45349;-87
2022/01/09 06:09:03;;;;;;;;;5.00;1.00;;;;;6.72;100.00;99757.91;6222626;22;47594;-87
2022/01/09 06:11:29;;;;;;;;;2.33;1.00;;;;;6.81;100.00;99771.25;6221847;22;45331;-87
2022/01/09 06:13:54;;;;;;;;;0.33;0.33;;;;;6.83;100.00;99772.16;6222105;22;45964;-87
2022/01/09 06:16:19;;;;;;;;;3.00;2.00;;;;;6.86;100.00;99766.03;6221969;22;45752;-87
2022/01/09 06:18:45;;;;;;;;;1.67;0.00;;;;;6.96;100.00;99774.09;6220658;22;47916;-86
2022/01/09 06:21:10;;;;;;;;;1.67;1.00;;;;;6.99;100.00;99776.78;6223946;22;45673;-86
2022/01/09 06:23:36;;;;;;;;;1.00;1.00;;;;;7.00;100.00;99775.91;6221237;22;45350;-85
2022/01/09 06:26:01;;;;;;;;;0.00;0.00;;;;;6.99;100.00;99773.25;6221621;22;45495;-86
2022/01/09 06:28:27;;;;;;;;;1.00;1.00;;;;;7.03;100.00;99777.72;6221403;22;46999;-86
2022/01/09 06:31:36;;;;;;;;;3.00;1.33;;;;;7.18;100.00;99788.47;6222150;22;45366;-87
2022/01/09 06:34:02;;;;;;;;;1.00;1.00;;;;;7.15;100.00;99784.88;6223725;22;45555;-86
2022/01/09 06:36:27;;;;;;;;;1.00;1.00;;;;;7.18;100.00;99790.22;6223922;22;45754;-86
2022/01/09 06:38:52;;;;;;;;;4.67;1.00;;;;;7.17;100.00;99788.44;6221985;22;46837;-85
2022/01/09 06:41:18;;;;;;;;;1.00;0.67;;;;;7.12;100.00;99779.56;6223685;22;44765;-86
2022/01/09 06:43:44;;;;;;;;;1.00;0.00;;;;;7.21;100.00;99795.53;6223671;22;45735;-86
2022/01/09 06:46:10;;;;;;;;;0.00;0.00;;;;;7.20;100.00;99788.50;6224503;22;45323;-86
2022/01/09 06:48:36;;;;;;;;;0.00;0.00;;;;;7.13;100.00;99786.63;6222627;22;48128;-86
2022/01/09 06:51:01;;;;;;;;;0.00;0.00;;;;;7.09;100.00;99783.06;6221161;22;45830;-86
2022/01/09 06:53:27;;;;;;;;;0.00;0.00;;;;;7.04;100.00;99786.53;6223303;22;45285;-86
2022/01/09 06:55:52;;;;;;;;;0.67;0.67;;;;;6.93;100.00;99779.34;6226078;22;45252;-86
2022/01/09 06:58:21;;;;;;;;;1.00;0.00;;;;;6.89;100.00;99781.91;6223202;22;47040;-86
2022/01/09 07:00:47;;;;;;;;;0.00;0.00;;;;;6.79;100.00;99775.63;6224855;22;45396;-86
2022/01/09 07:03:13;;;;;;;;;0.00;0.00;;;;;6.75;100.00;99773.81;6221442;22;45551;-85
2022/01/09 07:05:38;;;;;;;;;1.00;1.00;;;;;6.68;100.00;99769.28;6224372;22;45574;-86
2022/01/09 07:08:04;;;;;;;;;0.00;0.00;;;;;6.74;100.00;99787.88;6223034;22;46652;-86
2022/01/09 07:10:30;;;;;;;;;0.00;0.00;;;;;6.75;100.00;99790.53;6223897;22;45747;-86
2022/01/09 07:12:56;;;;;;;;;0.00;0.00;;;;;6.77;100.00;99790.56;6222113;22;45436;-86
2022/01/09 07:15:21;;;;;;;;;2.67;0.67;;;;;6.80;100.00;99778.28;6224763;22;45325;-86
2022/01/09 07:17:47;;;;;;;;;0.00;0.00;;;;;6.85;100.00;99791.56;6223633;22;47389;-86
2022/01/09 07:20:12;;;;;;;;;0.67;0.00;;;;;6.87;100.00;99789.84;6221974;22;45541;-85
2022/01/09 07:22:38;;;;;;;;;0.00;0.00;;;;;6.86;100.00;99793.31;6221665;22;45379;-86
2022/01/09 07:25:05;;;;;;;;;1.00;1.00;;;;;6.93;100.00;99795.19;6224991;22;45244;-85
2022/01/09 07:27:32;;;;;;;;;0.00;0.00;;;;;6.89;100.00;99790.75;6222973;22;48213;-85
2022/01/09 07:29:58;;;;;;;;;0.00;0.00;;;;;6.95;100.00;99793.47;6226227;22;45577;-86
2022/01/09 07:32:23;;;;;;;;;1.00;1.00;;;;;6.95;100.00;99782.00;6224275;22;45326;-86
2022/01/09 07:34:49;;;;;;;;;0.00;0.00;;;;;7.04;100.00;99781.25;6224250;22;45401;-86
2022/01/09 07:37:21;;;;;;;;;3.00;1.00;;;;;7.07;100.00;99807.69;6224630;22;46777;-86
2022/01/09 07:39:46;;;;;;;;;1.33;0.00;;;;;7.07;100.00;99819.19;6225172;22;45617;-86
2022/01/09 07:42:13;;;;;;;;;0.00;0.00;;;;;6.95;100.00;99803.16;6225860;22;44795;-86
2022/01/09 07:44:38;;;;;;;;;0.33;0.33;;;;;6.86;100.00;99797.72;6223934;22;45339;-84
2022/01/09 07:47:10;;;;;;;;;1.00;0.00;;;;;6.91;100.00;99802.22;6225377;22;45479;-85
2022/01/09 07:49:35;;;;;;;;;1.00;1.00;;;;;6.84;100.00;99823.25;6220258;22;45806;-85
2022/01/09 07:52:01;;;;;;;;;0.00;0.00;;;;;6.80;100.00;99819.66;6225212;22;45735;-85
2022/01/09 07:54:26;;;;;;;;;0.00;0.00;;;;;6.78;100.00;99824.94;6222405;22;45463;-86
2022/01/09 07:56:51;;;;;;;;;2.33;0.33;;;;;6.84;100.00;99832.06;6222469;22;47004;-86
2022/01/09 08:00:07;;;;;;;;;2.00;0.00;;;;;6.94;100.00;99817.22;6222797;22;45372;-86
2022/01/09 08:02:32;;;;;;;;;0.33;0.00;;;;;6.80;100.00;99804.69;6222392;22;45447;-86
2022/01/09 08:04:57;;;;;;;;;0.00;0.00;;;;;6.77;100.00;99809.06;6225559;22;44782;-86
2022/01/09 08:07:23;;;;;;;;;0.00;0.00;;;;;6.74;100.00;99801.09;6222140;22;47558;-86
2022/01/09 08:09:48;;;;;;;;;2.00;1.00;;;;;6.74;100.00;99806.38;6223565;22;45408;-86
2022/01/09 08:12:16;;;;;;;;;0.00;0.00;;;;;6.73;100.00;99792.28;6224230;22;45239;-86
2022/01/09 08:14:43;;;;;;;;;2.67;1.00;;;;;6.80;100.00;99807.34;6223655;22;45828;-85
2022/01/09 08:17:09;;;;;;;;;1.00;0.00;;;;;6.88;100.00;99806.56;6225029;22;47214;-84
2022/01/09 08:19:35;;;;;;;;;2.00;1.00;;;;;6.71;100.00;99794.00;6225669;22;45644;-85
2022/01/09 08:22:06;;;;;;;;;1.00;0.67;;;;;6.94;100.00;99801.38;6226738;22;45383;-85
2022/01/09 08:24:33;;;;;;;;;0.00;0.00;;;;;6.89;100.00;99792.47;6225414;22;44886;-85
2022/01/09 08:26:58;;;;;;;;;2.00;2.00;;;;;6.88;100.00;99796.88;6226816;22;45724;-86
2022/01/09 08:32:47;;;;;;;;;1.00;0.00;;;;;7.05;100.00;99796.22;6226048;22;45302;-86
2022/01/09 08:35:12;;;;;;;;;0.33;0.33;;;;;7.06;100.00;99796.25;6224765;22;45413;-85
2022/01/09 08:37:41;;;;;;;;;0.00;0.00;;;;;7.03;100.00;99785.66;6225250;22;47123;-85
2022/01/09 08:40:12;;;;;;;;;0.00;0.00;;;;;7.05;100.00;99793.56;6226754;22;45350;-85
2022/01/09 08:42:37;;;;;;;;;0.00;0.00;;;;;7.00;100.00;99794.41;6224242;22;45261;-85
2022/01/09 08:45:03;;;;;;;;;1.67;1.00;;;;;6.99;100.00;99789.13;6223794;22;45512;-86
2022/01/09 08:47:29;;;;;;;;;3.00;1.00;;;;;7.00;100.00;99791.75;6223632;22;46214;-86
2022/01/09 08:49:54;;;;;;;;;0.00;0.00;;;;;7.07;100.00;99792.75;6219567;22;45718;-86
2022/01/09 08:52:20;;;;;;;;;0.67;0.00;;;;;7.15;100.00;99800.75;6223008;22;45398;-86
2022/01/09 08:54:45;;;;;;;;;1.00;1.00;;;;;7.19;100.00;99797.28;6222442;22;45520;-86
2022/01/09 08:57:10;;;;;;;;;0.00;0.00;;;;;7.18;100.00;99790.22;6224379;22;45869;-86
2022/01/09 08:59:37;;;;;;;;;1.67;1.00;;;;;7.39;100.00;99795.78;6222275;22;45560;-85
2022/01/09 09:02:03;;;;;;;;;2.00;0.00;;;;;7.46;100.00;99814.38;6222183;22;45266;-86
2022/01/09 09:04:28;;;;;;;;;1.33;0.67;;;;;7.51;100.00;99800.31;6224124;22;45457;-86
2022/01/09 09:06:53;;;;;;;;;0.00;0.00;;;;;7.63;100.00;99806.63;6221759;22;46810;-86
2022/01/09 09:09:19;;;;;;;;;2.00;1.00;;;;;7.53;100.00;99808.25;6222263;22;45701;-86
2022/01/09 09:11:44;;;;;;;;;0.00;0.00;;;;;7.59;100.00;99826.84;6222202;22;45705;-86
2022/01/09 09:14:10;;;;;;;;;1.00;0.00;;;;;7.58;100.00;99823.31;6222179;22;44812;-86
2022/01/09 09:16:37;;;;;;;;;0.67;0.00;;;;;7.64;100.00;99838.41;6222780;22;47156;-86
2022/01/09 09:19:04;;;;;;;;;1.00;1.00;;;;;7.36;100.00;99794.84;6224682;22;45376;-86
2022/01/09 09:21:32;;;;;;;;;1.00;1.00;;;;;7.40;100.00;99792.25;6224515;22;45282;-86
2022/01/09 09:23:58;;;;;;;;;1.33;0.67;;;;;7.36;100.00;99806.31;6197001;22;45744;-85
2022/01/09 09:26:23;;;;;;;;;0.00;0.00;;;;;7.57;100.00;99840.09;6221442;22;46928;-86
2022/01/09 09:28:50;;;;;;;;;1.00;1.00;;;;;7.44;100.00;99803.75;6221405;22;45847;-86
2022/01/09 09:31:17;;;;;;;;;1.00;0.67;;;;;7.56;100.00;99818.91;6224568;22;45399;-86
2022/01/09 09:33:42;;;;;;;;;3.00;1.00;;;;;7.65;100.00;99821.63;6224860;22;45265;-87
2022/01/09 09:36:08;;;;;;;;;0.67;0.67;;;;;7.71;100.00;99812.88;6224105;22;46191;-86
2022/01/09 09:38:35;;;;;;;;;1.00;1.00;;;;;7.90;100.00;99827.22;6221953;22;44938;-86
2022/01/09 09:41:00;;;;;;;;;1.00;1.00;;;;;7.92;100.00;99822.81;6222808;22;45622;-86
2022/01/09 09:43:26;;;;;;;;;1.00;1.00;;;;;7.94;100.00;99826.38;6222643;22;45706;-87
2022/01/09 09:45:52;;;;;;;;;1.00;1.00;;;;;8.00;100.00;99837.91;6225775;22;47892;-86
2022/01/09 09:48:18;;;;;;;;;0.67;0.67;;;;;7.81;100.00;99810.34;6226842;22;45340;-86
2022/01/09 09:50:44;;;;;;;;;1.00;1.00;;;;;7.82;100.00;99857.13;6223488;22;44824;-86
2022/01/09 09:53:09;;;;;;;;;2.67;2.67;;;;;7.77;100.00;99856.16;6225509;22;45219;-86
2022/01/09 09:55:34;;;;;;;;;3.00;3.00;;;;;7.76;100.00;99859.69;6225670;22;45382;-86
2022/01/09 09:58:03;;;;;;;;;2.00;2.00;;;;;7.57;100.00;99842.75;6226412;22;45380;-86
2022/01/09 10:00:29;;;;;;;;;2.00;2.00;;;;;7.62;100.00;99856.00;6223856;22;45390;-86
2022/01/09 10:02:57;;;;;;;;;2.00;2.00;;;;;7.64;100.00;99848.97;6222042;22;45644;-86
2022/01/09 10:05:32;;;;;;;;;3.00;2.00;;;;;7.72;100.00;99865.84;6223150;22;47101;-86
2022/01/09 10:08:15;;;;;;;;;3.00;3.00;;;;;7.75;100.00;99857.03;6222311;22;45414;-86
2022/01/09 10:10:41;;;;;;;;;3.67;1.67;;;;;7.75;100.00;99867.63;6224494;22;45818;-85
2022/01/09 10:13:13;;;;;;;;;2.00;2.00;;;;;7.84;100.00;99864.19;6222523;22;45621;-86
2022/01/09 10:15:50;;;;;;;;;1.33;1.33;;;;;7.79;100.00;99829.72;6223976;22;45404;-86
2022/01/09 10:18:37;;;;;;;;;2.00;2.00;;;;;7.95;100.00;99854.59;6222862;22;45453;-86
2022/01/09 10:21:20;;;;;;;;;4.33;4.33;;;;;7.97;100.00;99863.44;6226614;22;45434;-85
2022/01/09 10:24:11;;;;;;;;;1.67;1.00;;;;;8.00;100.00;99861.72;6225007;22;45730;-85
2022/01/09 10:26:39;;;;;;;;;0.00;0.00;;;;;8.04;100.00;99862.66;6227111;22;46055;-85
2022/01/09 10:29:07;;;;;;;;;2.00;1.00;;;;;8.11;100.00;99877.72;6226697;22;45042;-86
2022/01/09 10:31:50;;;;;;;;;1.33;1.33;;;;;8.21;100.00;99873.41;6224161;22;44823;-86
2022/01/09 10:34:19;;;;;;;;;2.33;2.33;;;;;8.35;100.00;99878.84;6225186;22;45744;-86
2022/01/09 10:36:48;;;;;;;;;2.33;2.33;;;;;8.55;100.00;99863.16;6223228;22;45982;-86
2022/01/09 10:39:26;;;;;;;;;7.67;5.00;;;;;8.84;100.00;99865.13;6222286;22;45002;-86
2022/01/09 10:41:56;;;;;;;;;2.00;2.00;;;;;8.94;100.00;99867.84;6223485;22;45280;-86
2022/01/09 10:44:27;;;;;;;;;2.00;2.00;;;;;8.83;100.00;99866.91;6221522;22;45365;-86
2022/01/09 10:47:05;;;;;;;;;5.00;2.00;;;;;8.76;100.00;99862.41;6223010;22;46939;-86
2022/01/09 10:49:41;;;;;;;;;0.67;0.00;;;;;8.76;100.00;99878.31;6221594;22;45603;-86
2022/01/09 10:52:21;;;;;;;;;1.00;1.00;;;;;8.62;100.00;99870.25;6197829;22;45654;-86
2022/01/09 10:54:48;;;;;;;;;0.00;0.00;;;;;8.35;100.00;99876.19;6225252;22;44826;-86
2022/01/09 10:57:21;;;;;;;;;1.00;1.00;;;;;8.31;100.00;99890.28;6172615;22;47199;-85
2022/01/09 10:59:48;;;;;;;;;0.00;0.00;;;;;8.17;100.00;99874.25;6198485;22;45298;-85
2022/01/09 11:02:14;;;;;;;;;2.67;2.00;;;;;8.10;100.00;99886.53;6197692;22;45449;-85
2022/01/09 11:04:47;;;;;;;;;2.33;1.00;;;;;7.88;100.00;99871.31;6197118;22;45457;-86
2022/01/09 11:07:12;;;;;;;;;7.00;5.00;;;;;7.75;100.00;99896.72;6225271;22;45457;-86
2022/01/09 11:09:40;;;;;;;;;5.67;3.67;;;;;7.67;100.00;99899.28;6197257;22;44727;-86
2022/01/09 11:12:10;;;;;;;;;3.00;3.00;;;;;7.75;100.00;99900.25;6223908;22;45419;-86
2022/01/09 11:14:41;;;;;;;;;2.00;2.00;;;;;7.80;100.00;99908.28;6196201;22;45524;-86
2022/01/09 11:17:08;;;;;;;;;6.67;6.67;;;;;7.80;100.00;99905.63;6198188;22;48019;-87
2022/01/09 11:19:33;;;;;;;;;1.00;1.00;;;;;7.84;100.00;99903.88;6200265;22;45870;-86
2022/01/09 11:22:03;;;;;;;;;2.67;2.67;;;;;7.94;100.00;99908.44;6202182;22;45741;-86
2022/01/09 11:24:54;;;;;;;;;5.00;3.00;;;;;7.95;100.00;99897.84;6201703;22;45559;-86
2022/01/09 11:27:27;;;;;;;;;6.00;6.00;;;;;8.10;100.00;99902.44;6185293;22;47120;-87
2022/01/09 11:29:58;;;;;;;;;5.00;5.00;;;;;8.19;100.00;99901.63;6200828;22;45288;-87
2022/01/09 11:33:10;;;;;;;;;9.67;7.00;;;;;8.27;100.00;99901.72;6201228;22;45702;-86
2022/01/09 11:35:44;;;;;;;;;5.00;5.00;;;;;8.27;100.00;99899.06;6202654;22;45340;-86
2022/01/09 11:38:21;;;;;;;;;5.00;5.00;;;;;8.21;100.00;99895.47;6200424;22;46978;-87
2022/01/09 11:40:46;;;;;;;;;6.00;6.00;;;;;8.29;100.00;99895.56;6200469;22;45410;-87
2022/01/09 11:43:15;;;;;;;;;5.67;5.00;;;;;8.45;100.00;99901.03;6227168;22;45388;-86
2022/01/09 11:45:51;;;;;;;;;6.67;5.00;;;;;8.60;100.00;99893.19;6200819;22;45953;-87
2022/01/09 11:48:39;;;;;;;;;6.67;5.00;;;;;8.66;100.00;99903.84;6228242;22;45826;-86